sensor_id;sensor_type;location;lat;lon;timestamp;P1;durP1;ratioP1;P2;durP2;ratioP2
49384;SDS011;36795;45.028;38.968;2022-09-14T00:01:31;19.45;;;6.07;;
49384;SDS011;36795;45.028;38.968;2022-09-14T00:04:19;15.88;;;5.85;;
49384;SDS011;36795;45.028;38.968;2022-09-14T00:07:06;14.93;;;5.43;;
49384;SDS011;36795;45.028;38.968;2022-09-14T00:09:53;18.45;;;5.87;;
49384;SDS011;36795;45.028;38.968;2022-09-14T00:12:39;16.75;;;5.18;;
49384;SDS011;36795;45.028;38.968;2022-09-14T00:15:26;18.25;;;5.68;;
49384;SDS011;36795;45.028;38.968;2022-09-14T00:18:12;21.25;;;5.80;;
49384;SDS011;36795;45.028;38.968;2022-09-14T00:20:59;19.12;;;6.15;;
49384;SDS011;36795;45.028;38.968;2022-09-14T00:23:45;16.70;;;5.05;;
49384;SDS011;36795;45.028;38.968;2022-09-14T00:26:33;15.52;;;5.03;;
49384;SDS011;36795;45.028;38.968;2022-09-14T00:29:19;17.08;;;4.93;;
49384;SDS011;36795;45.028;38.968;2022-09-14T00:32:06;16.65;;;5.10;;
49384;SDS011;36795;45.028;38.968;2022-09-14T00:34:51;13.77;;;5.18;;
49384;SDS011;36795;45.028;38.968;2022-09-14T00:37:38;15.60;;;5.47;;
49384;SDS011;36795;45.028;38.968;2022-09-14T00:40:24;15.73;;;4.75;;
49384;SDS011;36795;45.028;38.968;2022-09-14T00:43:13;15.75;;;5.10;;
49384;SDS011;36795;45.028;38.968;2022-09-14T00:46:00;15.65;;;4.75;;
49384;SDS011;36795;45.028;38.968;2022-09-14T00:48:47;17.83;;;5.20;;
49384;SDS011;36795;45.028;38.968;2022-09-14T00:51:33;13.82;;;4.93;;
49384;SDS011;36795;45.028;38.968;2022-09-14T00:54:21;16.33;;;5.15;;
49384;SDS011;36795;45.028;38.968;2022-09-14T00:57:07;19.87;;;5.95;;
49384;SDS011;36795;45.028;38.968;2022-09-14T00:59:54;16.90;;;5.47;;
49384;SDS011;36795;45.028;38.968;2022-09-14T01:02:41;16.17;;;5.05;;
49384;SDS011;36795;45.028;38.968;2022-09-14T01:05:36;17.95;;;5.78;;
49384;SDS011;36795;45.028;38.968;2022-09-14T01:08:37;20.20;;;5.40;;
49384;SDS011;36795;45.028;38.968;2022-09-14T01:20:37;20.40;;;6.05;;
49384;SDS011;36795;45.028;38.968;2022-09-14T01:32:25;16.62;;;5.78;;
49384;SDS011;36795;45.028;38.968;2022-09-14T01:35:23;20.08;;;6.40;;
49384;SDS011;36795;45.028;38.968;2022-09-14T01:38:19;18.65;;;6.37;;
49384;SDS011;36795;45.028;38.968;2022-09-14T01:41:21;22.90;;;6.40;;
49384;SDS011;36795;45.028;38.968;2022-09-14T01:44:20;20.42;;;7.07;;
49384;SDS011;36795;45.028;38.968;2022-09-14T01:47:14;19.48;;;6.55;;
49384;SDS011;36795;45.028;38.968;2022-09-14T01:50:09;20.55;;;6.07;;
49384;SDS011;36795;45.028;38.968;2022-09-14T01:53:05;20.60;;;6.60;;
49384;SDS011;36795;45.028;38.968;2022-09-14T01:56:31;21.73;;;6.65;;
49384;SDS011;36795;45.028;38.968;2022-09-14T01:59:24;23.08;;;7.37;;
49384;SDS011;36795;45.028;38.968;2022-09-14T02:02:15;23.77;;;6.87;;
49384;SDS011;36795;45.028;38.968;2022-09-14T02:05:15;21.00;;;5.95;;
49384;SDS011;36795;45.028;38.968;2022-09-14T02:08:07;20.95;;;6.40;;
49384;SDS011;36795;45.028;38.968;2022-09-14T02:10:54;18.62;;;5.97;;
49384;SDS011;36795;45.028;38.968;2022-09-14T02:13:41;19.15;;;6.78;;
49384;SDS011;36795;45.028;38.968;2022-09-14T02:16:27;20.85;;;6.55;;
49384;SDS011;36795;45.028;38.968;2022-09-14T02:19:14;20.90;;;7.40;;
49384;SDS011;36795;45.028;38.968;2022-09-14T02:22:00;21.87;;;8.43;;
49384;SDS011;36795;45.028;38.968;2022-09-14T02:24:45;18.08;;;6.10;;
49384;SDS011;36795;45.028;38.968;2022-09-14T02:27:33;17.87;;;5.75;;
49384;SDS011;36795;45.028;38.968;2022-09-14T02:30:19;16.87;;;5.87;;
49384;SDS011;36795;45.028;38.968;2022-09-14T02:33:09;17.33;;;5.62;;
49384;SDS011;36795;45.028;38.968;2022-09-14T02:36:00;18.10;;;5.70;;
49384;SDS011;36795;45.028;38.968;2022-09-14T02:45:22;18.15;;;5.47;;
49384;SDS011;36795;45.028;38.968;2022-09-14T02:48:28;16.90;;;5.57;;
49384;SDS011;36795;45.028;38.968;2022-09-14T02:57:00;12.98;;;4.37;;
49384;SDS011;36795;45.028;38.968;2022-09-14T02:59:47;15.18;;;5.05;;
49384;SDS011;36795;45.028;38.968;2022-09-14T03:02:34;18.40;;;5.28;;
49384;SDS011;36795;45.028;38.968;2022-09-14T03:05:20;14.85;;;4.28;;
49384;SDS011;36795;45.028;38.968;2022-09-14T03:08:07;15.00;;;4.82;;
49384;SDS011;36795;45.028;38.968;2022-09-14T03:10:57;13.70;;;4.10;;
49384;SDS011;36795;45.028;38.968;2022-09-14T03:13:43;17.08;;;5.00;;
49384;SDS011;36795;45.028;38.968;2022-09-14T03:16:29;17.50;;;5.20;;
49384;SDS011;36795;45.028;38.968;2022-09-14T03:19:16;14.63;;;4.25;;
49384;SDS011;36795;45.028;38.968;2022-09-14T03:22:02;14.52;;;4.20;;
49384;SDS011;36795;45.028;38.968;2022-09-14T03:24:48;25.35;;;6.45;;
49384;SDS011;36795;45.028;38.968;2022-09-14T03:27:34;17.62;;;4.75;;
49384;SDS011;36795;45.028;38.968;2022-09-14T03:30:21;15.68;;;4.78;;
49384;SDS011;36795;45.028;38.968;2022-09-14T03:33:07;19.98;;;5.10;;
49384;SDS011;36795;45.028;38.968;2022-09-14T03:35:54;14.30;;;4.28;;
49384;SDS011;36795;45.028;38.968;2022-09-14T03:38:47;18.65;;;4.60;;
49384;SDS011;36795;45.028;38.968;2022-09-14T03:41:38;16.35;;;5.07;;
49384;SDS011;36795;45.028;38.968;2022-09-14T03:44:24;21.23;;;6.95;;
49384;SDS011;36795;45.028;38.968;2022-09-14T03:47:11;17.08;;;4.35;;
49384;SDS011;36795;45.028;38.968;2022-09-14T03:49:56;16.83;;;4.30;;
49384;SDS011;36795;45.028;38.968;2022-09-14T03:52:43;16.52;;;4.30;;
49384;SDS011;36795;45.028;38.968;2022-09-14T03:55:29;15.57;;;3.85;;
49384;SDS011;36795;45.028;38.968;2022-09-14T03:58:15;16.83;;;4.22;;
49384;SDS011;36795;45.028;38.968;2022-09-14T04:01:05;13.18;;;3.67;;
49384;SDS011;36795;45.028;38.968;2022-09-14T04:03:54;13.38;;;3.75;;
49384;SDS011;36795;45.028;38.968;2022-09-14T04:06:40;17.35;;;3.83;;
49384;SDS011;36795;45.028;38.968;2022-09-14T04:09:26;21.52;;;4.82;;
49384;SDS011;36795;45.028;38.968;2022-09-14T04:12:12;12.90;;;3.85;;
49384;SDS011;36795;45.028;38.968;2022-09-14T04:14:58;22.23;;;5.35;;
49384;SDS011;36795;45.028;38.968;2022-09-14T04:17:44;19.37;;;3.83;;
49384;SDS011;36795;45.028;38.968;2022-09-14T04:20:32;16.75;;;3.75;;
49384;SDS011;36795;45.028;38.968;2022-09-14T04:23:17;16.83;;;3.60;;
49384;SDS011;36795;45.028;38.968;2022-09-14T04:26:10;16.98;;;3.42;;
49384;SDS011;36795;45.028;38.968;2022-09-14T04:28:58;14.65;;;3.42;;
49384;SDS011;36795;45.028;38.968;2022-09-14T04:31:45;14.43;;;3.53;;
49384;SDS011;36795;45.028;38.968;2022-09-14T04:34:33;12.20;;;3.53;;
49384;SDS011;36795;45.028;38.968;2022-09-14T04:37:20;11.38;;;2.90;;
49384;SDS011;36795;45.028;38.968;2022-09-14T04:40:06;14.35;;;3.65;;
49384;SDS011;36795;45.028;38.968;2022-09-14T04:42:52;17.58;;;4.28;;
49384;SDS011;36795;45.028;38.968;2022-09-14T04:45:38;13.40;;;3.78;;
49384;SDS011;36795;45.028;38.968;2022-09-14T04:48:25;16.87;;;3.85;;
49384;SDS011;36795;45.028;38.968;2022-09-14T04:51:13;11.73;;;3.15;;
49384;SDS011;36795;45.028;38.968;2022-09-14T04:54:04;13.48;;;3.28;;
49384;SDS011;36795;45.028;38.968;2022-09-14T04:56:51;13.70;;;3.87;;
49384;SDS011;36795;45.028;38.968;2022-09-14T04:59:38;16.40;;;3.20;;
49384;SDS011;36795;45.028;38.968;2022-09-14T05:02:24;15.07;;;3.08;;
49384;SDS011;36795;45.028;38.968;2022-09-14T05:05:11;13.68;;;3.42;;
49384;SDS011;36795;45.028;38.968;2022-09-14T05:07:57;20.33;;;3.28;;
49384;SDS011;36795;45.028;38.968;2022-09-14T05:10:43;13.43;;;3.00;;
49384;SDS011;36795;45.028;38.968;2022-09-14T05:13:29;15.23;;;4.00;;
49384;SDS011;36795;45.028;38.968;2022-09-14T05:16:17;15.25;;;2.60;;
49384;SDS011;36795;45.028;38.968;2022-09-14T05:19:05;20.05;;;3.92;;
49384;SDS011;36795;45.028;38.968;2022-09-14T05:21:55;9.57;;;2.47;;
49384;SDS011;36795;45.028;38.968;2022-09-14T05:24:42;12.13;;;2.75;;
49384;SDS011;36795;45.028;38.968;2022-09-14T05:27:28;11.82;;;2.87;;
49384;SDS011;36795;45.028;38.968;2022-09-14T05:30:15;13.25;;;2.92;;
49384;SDS011;36795;45.028;38.968;2022-09-14T05:33:01;12.60;;;2.62;;
49384;SDS011;36795;45.028;38.968;2022-09-14T05:35:47;8.02;;;2.58;;
49384;SDS011;36795;45.028;38.968;2022-09-14T05:38:35;11.25;;;2.50;;
49384;SDS011;36795;45.028;38.968;2022-09-14T05:41:22;8.93;;;2.80;;
49384;SDS011;36795;45.028;38.968;2022-09-14T05:44:09;10.15;;;2.20;;
49384;SDS011;36795;45.028;38.968;2022-09-14T05:46:55;9.43;;;2.80;;
49384;SDS011;36795;45.028;38.968;2022-09-14T05:49:41;10.70;;;2.45;;
49384;SDS011;36795;45.028;38.968;2022-09-14T05:52:28;13.85;;;3.17;;
49384;SDS011;36795;45.028;38.968;2022-09-14T05:55:14;9.63;;;2.17;;
49384;SDS011;36795;45.028;38.968;2022-09-14T05:57:59;7.55;;;2.00;;
49384;SDS011;36795;45.028;38.968;2022-09-14T06:00:46;10.05;;;2.50;;
49384;SDS011;36795;45.028;38.968;2022-09-14T06:03:32;7.25;;;1.87;;
49384;SDS011;36795;45.028;38.968;2022-09-14T06:06:19;8.32;;;1.90;;
49384;SDS011;36795;45.028;38.968;2022-09-14T06:09:06;7.40;;;1.92;;
49384;SDS011;36795;45.028;38.968;2022-09-14T06:11:52;7.90;;;1.92;;
49384;SDS011;36795;45.028;38.968;2022-09-14T06:14:38;11.75;;;2.12;;
49384;SDS011;36795;45.028;38.968;2022-09-14T06:17:24;5.90;;;1.83;;
49384;SDS011;36795;45.028;38.968;2022-09-14T06:20:13;5.93;;;1.50;;
49384;SDS011;36795;45.028;38.968;2022-09-14T06:22:59;7.43;;;2.12;;
49384;SDS011;36795;45.028;38.968;2022-09-14T06:25:45;4.60;;;1.50;;
49384;SDS011;36795;45.028;38.968;2022-09-14T06:28:31;6.30;;;1.87;;
49384;SDS011;36795;45.028;38.968;2022-09-14T06:31:19;3.10;;;1.40;;
49384;SDS011;36795;45.028;38.968;2022-09-14T06:34:06;6.43;;;1.60;;
49384;SDS011;36795;45.028;38.968;2022-09-14T06:36:53;7.78;;;1.70;;
49384;SDS011;36795;45.028;38.968;2022-09-14T06:39:39;5.80;;;1.70;;
49384;SDS011;36795;45.028;38.968;2022-09-14T06:42:27;9.00;;;1.98;;
49384;SDS011;36795;45.028;38.968;2022-09-14T06:45:14;8.18;;;2.22;;
49384;SDS011;36795;45.028;38.968;2022-09-14T06:48:01;6.03;;;1.33;;
49384;SDS011;36795;45.028;38.968;2022-09-14T06:50:47;4.47;;;1.50;;
49384;SDS011;36795;45.028;38.968;2022-09-14T06:53:33;3.62;;;1.50;;
49384;SDS011;36795;45.028;38.968;2022-09-14T06:56:19;3.45;;;1.30;;
49384;SDS011;36795;45.028;38.968;2022-09-14T06:59:06;5.07;;;1.62;;
49384;SDS011;36795;45.028;38.968;2022-09-14T07:01:55;5.30;;;1.87;;
49384;SDS011;36795;45.028;38.968;2022-09-14T07:04:41;2.85;;;1.50;;
49384;SDS011;36795;45.028;38.968;2022-09-14T07:07:27;5.57;;;1.42;;
49384;SDS011;36795;45.028;38.968;2022-09-14T07:10:13;11.75;;;2.70;;
49384;SDS011;36795;45.028;38.968;2022-09-14T07:12:59;7.32;;;1.87;;
49384;SDS011;36795;45.028;38.968;2022-09-14T07:15:49;7.05;;;1.48;;
49384;SDS011;36795;45.028;38.968;2022-09-14T07:18:35;7.93;;;1.77;;
49384;SDS011;36795;45.028;38.968;2022-09-14T07:21:22;4.85;;;1.50;;
49384;SDS011;36795;45.028;38.968;2022-09-14T07:24:10;9.65;;;1.85;;
49384;SDS011;36795;45.028;38.968;2022-09-14T07:26:59;17.10;;;2.08;;
49384;SDS011;36795;45.028;38.968;2022-09-14T07:29:44;14.15;;;2.92;;
49384;SDS011;36795;45.028;38.968;2022-09-14T07:32:31;8.30;;;1.62;;
49384;SDS011;36795;45.028;38.968;2022-09-14T07:35:17;7.72;;;1.80;;
49384;SDS011;36795;45.028;38.968;2022-09-14T07:38:04;6.12;;;1.52;;
49384;SDS011;36795;45.028;38.968;2022-09-14T07:40:49;9.00;;;2.00;;
49384;SDS011;36795;45.028;38.968;2022-09-14T07:43:36;11.18;;;1.98;;
49384;SDS011;36795;45.028;38.968;2022-09-14T07:46:22;8.73;;;1.75;;
49384;SDS011;36795;45.028;38.968;2022-09-14T07:49:09;6.68;;;1.87;;
49384;SDS011;36795;45.028;38.968;2022-09-14T07:51:56;7.30;;;1.70;;
49384;SDS011;36795;45.028;38.968;2022-09-14T07:54:42;5.47;;;1.85;;
49384;SDS011;36795;45.028;38.968;2022-09-14T07:57:29;5.22;;;1.60;;
49384;SDS011;36795;45.028;38.968;2022-09-14T08:00:15;4.37;;;1.55;;
49384;SDS011;36795;45.028;38.968;2022-09-14T08:03:01;4.12;;;1.70;;
49384;SDS011;36795;45.028;38.968;2022-09-14T08:05:46;10.80;;;2.20;;
49384;SDS011;36795;45.028;38.968;2022-09-14T08:08:33;4.90;;;1.58;;
49384;SDS011;36795;45.028;38.968;2022-09-14T08:11:23;6.03;;;1.65;;
49384;SDS011;36795;45.028;38.968;2022-09-14T08:14:10;8.10;;;2.15;;
49384;SDS011;36795;45.028;38.968;2022-09-14T08:16:57;9.38;;;1.80;;
49384;SDS011;36795;45.028;38.968;2022-09-14T08:19:44;7.85;;;1.90;;
49384;SDS011;36795;45.028;38.968;2022-09-14T08:22:29;8.35;;;1.80;;
49384;SDS011;36795;45.028;38.968;2022-09-14T08:25:14;4.85;;;1.75;;
49384;SDS011;36795;45.028;38.968;2022-09-14T08:28:00;6.87;;;1.90;;
49384;SDS011;36795;45.028;38.968;2022-09-14T08:30:48;14.80;;;3.20;;
49384;SDS011;36795;45.028;38.968;2022-09-14T08:33:36;7.15;;;2.10;;
49384;SDS011;36795;45.028;38.968;2022-09-14T08:36:24;8.57;;;2.05;;
49384;SDS011;36795;45.028;38.968;2022-09-14T08:39:12;10.75;;;2.00;;
49384;SDS011;36795;45.028;38.968;2022-09-14T08:41:59;8.48;;;2.60;;
49384;SDS011;36795;45.028;38.968;2022-09-14T08:44:46;5.35;;;1.85;;
49384;SDS011;36795;45.028;38.968;2022-09-14T08:47:37;11.82;;;2.03;;
49384;SDS011;36795;45.028;38.968;2022-09-14T08:50:23;8.70;;;1.92;;
49384;SDS011;36795;45.028;38.968;2022-09-14T08:53:09;6.15;;;1.50;;
49384;SDS011;36795;45.028;38.968;2022-09-14T08:56:01;8.40;;;2.00;;
49384;SDS011;36795;45.028;38.968;2022-09-14T08:58:53;8.30;;;1.80;;
49384;SDS011;36795;45.028;38.968;2022-09-14T09:10:30;3.97;;;1.33;;
49384;SDS011;36795;45.028;38.968;2022-09-14T09:13:19;8.50;;;2.28;;
49384;SDS011;36795;45.028;38.968;2022-09-14T09:16:08;6.20;;;1.40;;
49384;SDS011;36795;45.028;38.968;2022-09-14T09:19:00;4.40;;;1.55;;
49384;SDS011;36795;45.028;38.968;2022-09-14T09:21:49;3.08;;;1.20;;
49384;SDS011;36795;45.028;38.968;2022-09-14T09:24:36;9.02;;;2.08;;
49384;SDS011;36795;45.028;38.968;2022-09-14T09:27:25;5.82;;;1.80;;
49384;SDS011;36795;45.028;38.968;2022-09-14T09:30:12;4.43;;;1.77;;
49384;SDS011;36795;45.028;38.968;2022-09-14T09:33:00;5.22;;;1.83;;
49384;SDS011;36795;45.028;38.968;2022-09-14T09:35:49;7.05;;;1.80;;
49384;SDS011;36795;45.028;38.968;2022-09-14T09:38:37;9.27;;;1.87;;
49384;SDS011;36795;45.028;38.968;2022-09-14T09:41:23;3.47;;;1.73;;
49384;SDS011;36795;45.028;38.968;2022-09-14T09:44:13;9.48;;;3.10;;
49384;SDS011;36795;45.028;38.968;2022-09-14T09:47:00;4.03;;;1.73;;
49384;SDS011;36795;45.028;38.968;2022-09-14T09:49:47;8.38;;;2.42;;
49384;SDS011;36795;45.028;38.968;2022-09-14T09:52:52;6.72;;;2.00;;
49384;SDS011;36795;45.028;38.968;2022-09-14T09:55:41;5.95;;;1.83;;
49384;SDS011;36795;45.028;38.968;2022-09-14T09:58:36;7.53;;;2.00;;
49384;SDS011;36795;45.028;38.968;2022-09-14T10:01:27;9.00;;;1.92;;
49384;SDS011;36795;45.028;38.968;2022-09-14T10:04:17;8.33;;;2.00;;
49384;SDS011;36795;45.028;38.968;2022-09-14T10:07:05;4.18;;;1.85;;
49384;SDS011;36795;45.028;38.968;2022-09-14T10:12:55;9.85;;;2.25;;
49384;SDS011;36795;45.028;38.968;2022-09-14T10:15:42;7.55;;;2.00;;
49384;SDS011;36795;45.028;38.968;2022-09-14T10:18:28;12.30;;;2.42;;
49384;SDS011;36795;45.028;38.968;2022-09-14T10:21:18;5.20;;;2.00;;
49384;SDS011;36795;45.028;38.968;2022-09-14T10:24:15;7.72;;;2.40;;
49384;SDS011;36795;45.028;38.968;2022-09-14T10:27:38;9.75;;;2.75;;
49384;SDS011;36795;45.028;38.968;2022-09-14T10:33:11;9.80;;;2.87;;
49384;SDS011;36795;45.028;38.968;2022-09-14T10:51:11;16.08;;;4.10;;
49384;SDS011;36795;45.028;38.968;2022-09-14T10:54:41;16.60;;;4.55;;
49384;SDS011;36795;45.028;38.968;2022-09-14T10:57:36;20.17;;;4.67;;
49384;SDS011;36795;45.028;38.968;2022-09-14T11:00:49;14.32;;;3.65;;
49384;SDS011;36795;45.028;38.968;2022-09-14T11:10:22;14.90;;;4.30;;
49384;SDS011;36795;45.028;38.968;2022-09-14T11:19:50;14.48;;;4.10;;
49384;SDS011;36795;45.028;38.968;2022-09-14T11:25:52;19.67;;;3.83;;
49384;SDS011;36795;45.028;38.968;2022-09-14T11:28:43;16.33;;;4.03;;
49384;SDS011;36795;45.028;38.968;2022-09-14T11:31:36;15.20;;;3.95;;
49384;SDS011;36795;45.028;38.968;2022-09-14T11:34:55;15.80;;;4.22;;
49384;SDS011;36795;45.028;38.968;2022-09-14T11:37:58;14.63;;;3.53;;
49384;SDS011;36795;45.028;38.968;2022-09-14T11:41:00;14.95;;;4.10;;
49384;SDS011;36795;45.028;38.968;2022-09-14T11:44:03;12.07;;;3.83;;
49384;SDS011;36795;45.028;38.968;2022-09-14T11:47:10;13.82;;;3.58;;
49384;SDS011;36795;45.028;38.968;2022-09-14T11:50:16;13.90;;;4.03;;
49384;SDS011;36795;45.028;38.968;2022-09-14T11:53:10;12.95;;;3.53;;
49384;SDS011;36795;45.028;38.968;2022-09-14T11:55:59;13.32;;;3.92;;
49384;SDS011;36795;45.028;38.968;2022-09-14T11:58:46;11.23;;;3.50;;
49384;SDS011;36795;45.028;38.968;2022-09-14T12:01:36;11.70;;;3.85;;
49384;SDS011;36795;45.028;38.968;2022-09-14T12:04:24;15.23;;;3.62;;
49384;SDS011;36795;45.028;38.968;2022-09-14T12:07:10;10.85;;;3.97;;
49384;SDS011;36795;45.028;38.968;2022-09-14T12:10:06;13.85;;;4.03;;
49384;SDS011;36795;45.028;38.968;2022-09-14T12:15:59;13.35;;;3.70;;
49384;SDS011;36795;45.028;38.968;2022-09-14T12:18:49;12.25;;;3.50;;
49384;SDS011;36795;45.028;38.968;2022-09-14T12:21:41;14.27;;;3.60;;
49384;SDS011;36795;45.028;38.968;2022-09-14T12:24:27;11.57;;;3.62;;
49384;SDS011;36795;45.028;38.968;2022-09-14T12:27:19;17.60;;;3.97;;
49384;SDS011;36795;45.028;38.968;2022-09-14T12:39:25;12.85;;;3.55;;
49384;SDS011;36795;45.028;38.968;2022-09-14T12:42:27;12.80;;;4.03;;
49384;SDS011;36795;45.028;38.968;2022-09-14T12:51:40;18.52;;;4.35;;
49384;SDS011;36795;45.028;38.968;2022-09-14T13:00:17;16.42;;;4.45;;
49384;SDS011;36795;45.028;38.968;2022-09-14T13:06:19;17.12;;;5.00;;
49384;SDS011;36795;45.028;38.968;2022-09-14T13:09:21;19.83;;;6.10;;
49384;SDS011;36795;45.028;38.968;2022-09-14T13:12:09;14.40;;;3.90;;
49384;SDS011;36795;45.028;38.968;2022-09-14T13:15:01;18.20;;;4.53;;
49384;SDS011;36795;45.028;38.968;2022-09-14T13:21:20;14.10;;;4.20;;
49384;SDS011;36795;45.028;38.968;2022-09-14T13:24:22;16.45;;;4.60;;
49384;SDS011;36795;45.028;38.968;2022-09-14T13:27:20;14.73;;;4.32;;
49384;SDS011;36795;45.028;38.968;2022-09-14T13:33:06;10.57;;;3.80;;
49384;SDS011;36795;45.028;38.968;2022-09-14T13:36:02;17.27;;;4.90;;
49384;SDS011;36795;45.028;38.968;2022-09-14T13:38:49;18.83;;;4.55;;
49384;SDS011;36795;45.028;38.968;2022-09-14T13:41:36;13.98;;;3.72;;
49384;SDS011;36795;45.028;38.968;2022-09-14T13:44:33;12.07;;;4.00;;
49384;SDS011;36795;45.028;38.968;2022-09-14T13:47:21;17.70;;;4.68;;
49384;SDS011;36795;45.028;38.968;2022-09-14T13:50:11;15.85;;;4.87;;
49384;SDS011;36795;45.028;38.968;2022-09-14T13:52:57;14.60;;;4.35;;
49384;SDS011;36795;45.028;38.968;2022-09-14T13:55:44;14.87;;;4.50;;
49384;SDS011;36795;45.028;38.968;2022-09-14T13:58:30;16.70;;;4.00;;
49384;SDS011;36795;45.028;38.968;2022-09-14T14:01:26;17.30;;;4.30;;
49384;SDS011;36795;45.028;38.968;2022-09-14T14:04:33;18.77;;;4.72;;
49384;SDS011;36795;45.028;38.968;2022-09-14T14:07:22;17.33;;;4.18;;
49384;SDS011;36795;45.028;38.968;2022-09-14T14:13:22;19.83;;;4.35;;
49384;SDS011;36795;45.028;38.968;2022-09-14T14:16:15;15.90;;;4.40;;
49384;SDS011;36795;45.028;38.968;2022-09-14T14:19:03;20.48;;;5.40;;
49384;SDS011;36795;45.028;38.968;2022-09-14T14:21:49;12.32;;;4.00;;
49384;SDS011;36795;45.028;38.968;2022-09-14T14:24:35;15.73;;;4.25;;
49384;SDS011;36795;45.028;38.968;2022-09-14T14:27:38;16.27;;;4.40;;
49384;SDS011;36795;45.028;38.968;2022-09-14T14:30:28;14.07;;;3.97;;
49384;SDS011;36795;45.028;38.968;2022-09-14T14:33:16;13.70;;;3.97;;
49384;SDS011;36795;45.028;38.968;2022-09-14T14:36:03;15.10;;;3.87;;
49384;SDS011;36795;45.028;38.968;2022-09-14T14:38:54;15.82;;;4.35;;
49384;SDS011;36795;45.028;38.968;2022-09-14T14:41:42;17.52;;;4.35;;
49384;SDS011;36795;45.028;38.968;2022-09-14T14:44:28;16.30;;;4.18;;
49384;SDS011;36795;45.028;38.968;2022-09-14T14:47:14;15.98;;;4.00;;
49384;SDS011;36795;45.028;38.968;2022-09-14T14:50:01;17.27;;;4.55;;
49384;SDS011;36795;45.028;38.968;2022-09-14T14:52:48;14.50;;;4.05;;
49384;SDS011;36795;45.028;38.968;2022-09-14T14:55:36;16.80;;;4.50;;
49384;SDS011;36795;45.028;38.968;2022-09-14T14:58:22;17.35;;;4.32;;
49384;SDS011;36795;45.028;38.968;2022-09-14T15:01:09;13.60;;;4.40;;
49384;SDS011;36795;45.028;38.968;2022-09-14T15:03:55;17.60;;;5.00;;
49384;SDS011;36795;45.028;38.968;2022-09-14T15:06:42;17.58;;;4.93;;
49384;SDS011;36795;45.028;38.968;2022-09-14T15:09:29;18.33;;;5.00;;
49384;SDS011;36795;45.028;38.968;2022-09-14T15:12:16;16.37;;;4.80;;
49384;SDS011;36795;45.028;38.968;2022-09-14T15:15:02;19.95;;;5.40;;
49384;SDS011;36795;45.028;38.968;2022-09-14T15:17:49;16.37;;;4.90;;
49384;SDS011;36795;45.028;38.968;2022-09-14T15:20:35;17.90;;;5.45;;
49384;SDS011;36795;45.028;38.968;2022-09-14T15:23:22;15.18;;;4.57;;
49384;SDS011;36795;45.028;38.968;2022-09-14T15:26:08;17.62;;;4.40;;
49384;SDS011;36795;45.028;38.968;2022-09-14T15:28:54;21.20;;;6.00;;
49384;SDS011;36795;45.028;38.968;2022-09-14T15:31:40;17.80;;;4.93;;
49384;SDS011;36795;45.028;38.968;2022-09-14T15:34:27;18.95;;;4.93;;
49384;SDS011;36795;45.028;38.968;2022-09-14T15:37:13;19.35;;;5.78;;
49384;SDS011;36795;45.028;38.968;2022-09-14T15:40:00;17.50;;;4.78;;
49384;SDS011;36795;45.028;38.968;2022-09-14T15:42:46;21.73;;;5.07;;
49384;SDS011;36795;45.028;38.968;2022-09-14T15:45:33;19.12;;;5.12;;
49384;SDS011;36795;45.028;38.968;2022-09-14T15:48:18;18.42;;;4.90;;
49384;SDS011;36795;45.028;38.968;2022-09-14T15:51:08;19.98;;;4.87;;
49384;SDS011;36795;45.028;38.968;2022-09-14T15:53:56;19.75;;;5.10;;
49384;SDS011;36795;45.028;38.968;2022-09-14T15:56:43;19.25;;;5.10;;
49384;SDS011;36795;45.028;38.968;2022-09-14T15:59:36;19.52;;;5.55;;
49384;SDS011;36795;45.028;38.968;2022-09-14T16:02:23;18.10;;;5.20;;
49384;SDS011;36795;45.028;38.968;2022-09-14T16:05:10;18.25;;;5.30;;
49384;SDS011;36795;45.028;38.968;2022-09-14T16:07:56;18.83;;;4.97;;
49384;SDS011;36795;45.028;38.968;2022-09-14T16:10:42;20.70;;;5.05;;
49384;SDS011;36795;45.028;38.968;2022-09-14T16:13:28;16.80;;;5.32;;
49384;SDS011;36795;45.028;38.968;2022-09-14T16:16:16;28.00;;;6.15;;
49384;SDS011;36795;45.028;38.968;2022-09-14T16:19:07;15.43;;;5.05;;
49384;SDS011;36795;45.028;38.968;2022-09-14T16:21:56;16.12;;;5.07;;
49384;SDS011;36795;45.028;38.968;2022-09-14T16:24:41;19.37;;;5.30;;
49384;SDS011;36795;45.028;38.968;2022-09-14T16:27:28;18.40;;;4.97;;
49384;SDS011;36795;45.028;38.968;2022-09-14T16:30:14;20.48;;;5.55;;
49384;SDS011;36795;45.028;38.968;2022-09-14T16:33:01;17.83;;;5.30;;
49384;SDS011;36795;45.028;38.968;2022-09-14T16:35:46;18.77;;;5.20;;
49384;SDS011;36795;45.028;38.968;2022-09-14T16:38:33;20.12;;;5.43;;
49384;SDS011;36795;45.028;38.968;2022-09-14T16:41:20;17.73;;;5.40;;
49384;SDS011;36795;45.028;38.968;2022-09-14T16:44:08;22.08;;;5.97;;
49384;SDS011;36795;45.028;38.968;2022-09-14T16:46:59;23.87;;;6.22;;
49384;SDS011;36795;45.028;38.968;2022-09-14T16:49:45;18.35;;;5.55;;
49384;SDS011;36795;45.028;38.968;2022-09-14T16:52:31;19.87;;;5.32;;
49384;SDS011;36795;45.028;38.968;2022-09-14T16:55:17;22.37;;;5.47;;
49384;SDS011;36795;45.028;38.968;2022-09-14T16:58:03;18.30;;;5.18;;
49384;SDS011;36795;45.028;38.968;2022-09-14T17:00:49;24.00;;;5.75;;
49384;SDS011;36795;45.028;38.968;2022-09-14T17:03:35;20.52;;;6.43;;
49384;SDS011;36795;45.028;38.968;2022-09-14T17:06:23;25.98;;;8.05;;
49384;SDS011;36795;45.028;38.968;2022-09-14T17:09:18;23.12;;;7.47;;
49384;SDS011;36795;45.028;38.968;2022-09-14T17:12:06;24.12;;;7.47;;
49384;SDS011;36795;45.028;38.968;2022-09-14T17:14:52;21.17;;;5.85;;
49384;SDS011;36795;45.028;38.968;2022-09-14T17:17:39;17.67;;;5.43;;
49384;SDS011;36795;45.028;38.968;2022-09-14T17:20:25;19.05;;;5.62;;
49384;SDS011;36795;45.028;38.968;2022-09-14T17:23:12;17.90;;;5.82;;
49384;SDS011;36795;45.028;38.968;2022-09-14T17:25:58;18.27;;;5.87;;
49384;SDS011;36795;45.028;38.968;2022-09-14T17:28:46;20.05;;;6.90;;
49384;SDS011;36795;45.028;38.968;2022-09-14T17:31:34;19.55;;;5.30;;
49384;SDS011;36795;45.028;38.968;2022-09-14T17:34:22;19.37;;;5.22;;
49384;SDS011;36795;45.028;38.968;2022-09-14T17:37:08;22.98;;;6.07;;
49384;SDS011;36795;45.028;38.968;2022-09-14T17:39:55;17.67;;;5.10;;
49384;SDS011;36795;45.028;38.968;2022-09-14T17:42:40;17.37;;;4.75;;
49384;SDS011;36795;45.028;38.968;2022-09-14T17:45:27;19.15;;;6.93;;
49384;SDS011;36795;45.028;38.968;2022-09-14T17:48:13;15.38;;;4.57;;
49384;SDS011;36795;45.028;38.968;2022-09-14T17:51:04;16.05;;;4.25;;
49384;SDS011;36795;45.028;38.968;2022-09-14T17:53:52;16.73;;;4.12;;
49384;SDS011;36795;45.028;38.968;2022-09-14T17:56:40;15.40;;;4.50;;
49384;SDS011;36795;45.028;38.968;2022-09-14T17:59:26;14.85;;;4.40;;
49384;SDS011;36795;45.028;38.968;2022-09-14T18:02:13;15.73;;;4.37;;
49384;SDS011;36795;45.028;38.968;2022-09-14T18:04:59;15.80;;;4.30;;
49384;SDS011;36795;45.028;38.968;2022-09-14T18:07:46;17.00;;;5.43;;
49384;SDS011;36795;45.028;38.968;2022-09-14T18:10:34;17.55;;;4.78;;
49384;SDS011;36795;45.028;38.968;2022-09-14T18:13:20;17.23;;;4.70;;
49384;SDS011;36795;45.028;38.968;2022-09-14T18:16:09;18.83;;;5.12;;
49384;SDS011;36795;45.028;38.968;2022-09-14T18:18:55;19.10;;;4.53;;
49384;SDS011;36795;45.028;38.968;2022-09-14T18:21:42;20.17;;;4.70;;
49384;SDS011;36795;45.028;38.968;2022-09-14T18:24:28;16.90;;;4.60;;
49384;SDS011;36795;45.028;38.968;2022-09-14T18:27:15;18.35;;;4.50;;